sensor_id;sensor_type;location;lat;lon;timestamp;pressure;altitude;pressure_sealevel;temperature;humidity
24858;BME280;12935;50.782;6.074;2022-07-29T00:01:44;99433.75;;;19.87;60.44
24858;BME280;12935;50.782;6.074;2022-07-29T00:04:09;99428.81;;;19.82;60.84
24858;BME280;12935;50.782;6.074;2022-07-29T00:06:35;99414.00;;;19.76;61.11
24858;BME280;12935;50.782;6.074;2022-07-29T00:09:00;99415.38;;;19.72;61.79
24858;BME280;12935;50.782;6.074;2022-07-29T00:11:25;99415.94;;;19.57;62.29
24858;BME280;12935;50.782;6.074;2022-07-29T00:13:51;99413.81;;;19.61;62.86
24858;BME280;12935;50.782;6.074;2022-07-29T00:16:16;99412.56;;;19.63;63.53
24858;BME280;12935;50.782;6.074;2022-07-29T00:18:41;99416.25;;;19.59;63.20
24858;BME280;12935;50.782;6.074;2022-07-29T00:21:06;99404.22;;;19.53;63.20
24858;BME280;12935;50.782;6.074;2022-07-29T00:23:32;99414.06;;;19.54;63.17
24858;BME280;12935;50.782;6.074;2022-07-29T00:25:57;99401.59;;;19.50;63.15
24858;BME280;12935;50.782;6.074;2022-07-29T00:28:22;99402.59;;;19.34;64.88
24858;BME280;12935;50.782;6.074;2022-07-29T00:30:48;99403.66;;;19.37;65.86
24858;BME280;12935;50.782;6.074;2022-07-29T00:33:13;99399.94;;;19.31;66.24
24858;BME280;12935;50.782;6.074;2022-07-29T00:35:38;99403.94;;;19.30;65.86
24858;BME280;12935;50.782;6.074;2022-07-29T00:38:11;99401.75;;;19.24;66.49
24858;BME280;12935;50.782;6.074;2022-07-29T00:40:36;99395.41;;;19.15;67.36
24858;BME280;12935;50.782;6.074;2022-07-29T00:43:02;99395.19;;;19.00;69.18
24858;BME280;12935;50.782;6.074;2022-07-29T00:45:27;99399.31;;;18.96;69.45
24858;BME280;12935;50.782;6.074;2022-07-29T00:47:53;99397.97;;;19.00;69.42
24858;BME280;12935;50.782;6.074;2022-07-29T00:50:18;99397.19;;;19.00;69.65
24858;BME280;12935;50.782;6.074;2022-07-29T00:52:43;99403.44;;;18.91;70.43
24858;BME280;12935;50.782;6.074;2022-07-29T00:55:12;99397.31;;;18.74;69.57
24858;BME280;12935;50.782;6.074;2022-07-29T00:57:38;99409.88;;;18.66;70.90
24858;BME280;12935;50.782;6.074;2022-07-29T01:00:08;99412.13;;;18.58;71.58
24858;BME280;12935;50.782;6.074;2022-07-29T01:02:34;99404.06;;;18.51;71.62
24858;BME280;12935;50.782;6.074;2022-07-29T01:05:01;99411.31;;;18.58;72.23
24858;BME280;12935;50.782;6.074;2022-07-29T01:07:27;99412.56;;;18.57;71.52
24858;BME280;12935;50.782;6.074;2022-07-29T01:09:54;99406.50;;;18.49;71.23
24858;BME280;12935;50.782;6.074;2022-07-29T01:12:24;99397.09;;;18.47;70.81
24858;BME280;12935;50.782;6.074;2022-07-29T01:14:50;99391.69;;;18.43;71.11
24858;BME280;12935;50.782;6.074;2022-07-29T01:17:30;99391.66;;;18.56;70.17
24858;BME280;12935;50.782;6.074;2022-07-29T01:20:07;99390.69;;;18.50;70.28
24858;BME280;12935;50.782;6.074;2022-07-29T01:22:36;99402.47;;;18.41;71.21
24858;BME280;12935;50.782;6.074;2022-07-29T01:25:10;99405.47;;;18.34;72.50
24858;BME280;12935;50.782;6.074;2022-07-29T01:28:01;99400.31;;;18.23;73.83
24858;BME280;12935;50.782;6.074;2022-07-29T01:30:35;99396.56;;;18.17;75.12
24858;BME280;12935;50.782;6.074;2022-07-29T01:33:07;99400.81;;;18.09;76.72
24858;BME280;12935;50.782;6.074;2022-07-29T01:35:41;99392.63;;;18.06;77.55
24858;BME280;12935;50.782;6.074;2022-07-29T01:38:13;99386.75;;;18.04;77.90
24858;BME280;12935;50.782;6.074;2022-07-29T01:40:51;99398.38;;;17.99;78.53
24858;BME280;12935;50.782;6.074;2022-07-29T01:43:27;99392.19;;;17.95;79.26
24858;BME280;12935;50.782;6.074;2022-07-29T01:45:58;99385.00;;;17.97;78.94
24858;BME280;12935;50.782;6.074;2022-07-29T01:48:41;99385.91;;;17.94;80.02
24858;BME280;12935;50.782;6.074;2022-07-29T01:51:14;99386.19;;;18.09;79.75
24858;BME280;12935;50.782;6.074;2022-07-29T01:53:51;99382.06;;;18.13;77.89
24858;BME280;12935;50.782;6.074;2022-07-29T01:56:21;99393.84;;;18.05;79.72
24858;BME280;12935;50.782;6.074;2022-07-29T01:58:49;99396.97;;;17.94;80.20
24858;BME280;12935;50.782;6.074;2022-07-29T02:01:15;99400.19;;;17.80;80.96
24858;BME280;12935;50.782;6.074;2022-07-29T02:03:43;99389.13;;;17.80;81.05
24858;BME280;12935;50.782;6.074;2022-07-29T02:06:11;99385.28;;;17.77;80.85
24858;BME280;12935;50.782;6.074;2022-07-29T02:08:38;99389.03;;;17.71;82.41
24858;BME280;12935;50.782;6.074;2022-07-29T02:11:04;99388.94;;;17.62;83.16
24858;BME280;12935;50.782;6.074;2022-07-29T02:13:31;99395.66;;;17.61;83.16
24858;BME280;12935;50.782;6.074;2022-07-29T02:15:58;99389.47;;;17.57;83.79
24858;BME280;12935;50.782;6.074;2022-07-29T02:18:25;99398.09;;;17.59;83.75
24858;BME280;12935;50.782;6.074;2022-07-29T02:20:54;99382.84;;;17.54;85.18
24858;BME280;12935;50.782;6.074;2022-07-29T02:23:23;99384.81;;;17.53;84.90
24858;BME280;12935;50.782;6.074;2022-07-29T02:25:51;99382.16;;;17.50;85.73
24858;BME280;12935;50.782;6.074;2022-07-29T02:28:18;99384.16;;;17.49;85.61
24858;BME280;12935;50.782;6.074;2022-07-29T02:30:45;99385.72;;;17.50;85.87
24858;BME280;12935;50.782;6.074;2022-07-29T02:33:13;99391.69;;;17.49;86.48
24858;BME280;12935;50.782;6.074;2022-07-29T02:35:40;99396.75;;;17.50;85.94
24858;BME280;12935;50.782;6.074;2022-07-29T02:38:08;99396.91;;;17.47;86.40
24858;BME280;12935;50.782;6.074;2022-07-29T02:40:53;99400.75;;;17.49;85.78
24858;BME280;12935;50.782;6.074;2022-07-29T02:43:19;99400.09;;;17.45;87.71
24858;BME280;12935;50.782;6.074;2022-07-29T02:45:47;99409.16;;;17.46;89.12
24858;BME280;12935;50.782;6.074;2022-07-29T02:48:15;99409.34;;;17.51;87.91
24858;BME280;12935;50.782;6.074;2022-07-29T02:50:50;99404.16;;;17.53;88.25
24858;BME280;12935;50.782;6.074;2022-07-29T02:53:18;99403.50;;;17.49;89.02
24858;BME280;12935;50.782;6.074;2022-07-29T02:55:56;99404.84;;;17.45;89.26
24858;BME280;12935;50.782;6.074;2022-07-29T02:58:27;99413.56;;;17.43;89.83
24858;BME280;12935;50.782;6.074;2022-07-29T03:00:58;99403.31;;;17.44;89.58
24858;BME280;12935;50.782;6.074;2022-07-29T03:03:26;99418.41;;;17.52;88.60
24858;BME280;12935;50.782;6.074;2022-07-29T03:05:55;99406.38;;;17.59;88.70
24858;BME280;12935;50.782;6.074;2022-07-29T03:08:22;99407.59;;;17.45;90.37
24858;BME280;12935;50.782;6.074;2022-07-29T03:10:48;99410.91;;;17.40;91.86
24858;BME280;12935;50.782;6.074;2022-07-29T03:13:14;99412.22;;;17.35;92.93
24858;BME280;12935;50.782;6.074;2022-07-29T03:15:42;99407.03;;;17.25;93.97
24858;BME280;12935;50.782;6.074;2022-07-29T03:18:09;99406.03;;;17.18;94.74
24858;BME280;12935;50.782;6.074;2022-07-29T03:20:34;99408.94;;;17.15;96.08
24858;BME280;12935;50.782;6.074;2022-07-29T03:23:00;99412.00;;;17.17;96.72
24858;BME280;12935;50.782;6.074;2022-07-29T03:25:25;99416.88;;;17.13;97.54
24858;BME280;12935;50.782;6.074;2022-07-29T03:27:52;99413.78;;;17.11;98.18
24858;BME280;12935;50.782;6.074;2022-07-29T03:30:17;99411.34;;;17.13;97.12
24858;BME280;12935;50.782;6.074;2022-07-29T03:32:42;99411.44;;;17.09;98.59
24858;BME280;12935;50.782;6.074;2022-07-29T03:35:08;99418.38;;;17.01;99.67
24858;BME280;12935;50.782;6.074;2022-07-29T03:37:33;99414.06;;;17.00;100.00
24858;BME280;12935;50.782;6.074;2022-07-29T03:40:03;99416.38;;;17.02;100.00
24858;BME280;12935;50.782;6.074;2022-07-29T03:42:31;99410.84;;;16.89;100.00
24858;BME280;12935;50.782;6.074;2022-07-29T03:45:00;99410.84;;;16.89;100.00
24858;BME280;12935;50.782;6.074;2022-07-29T03:47:28;99405.91;;;16.84;100.00
24858;BME280;12935;50.782;6.074;2022-07-29T03:50:00;99413.94;;;16.91;100.00
24858;BME280;12935;50.782;6.074;2022-07-29T03:52:27;99418.16;;;16.96;100.00
24858;BME280;12935;50.782;6.074;2022-07-29T03:54:53;99415.31;;;17.12;98.30
24858;BME280;12935;50.782;6.074;2022-07-29T03:57:20;99418.41;;;17.14;99.56
24858;BME280;12935;50.782;6.074;2022-07-29T03:59:48;99423.72;;;17.21;97.21
24858;BME280;12935;50.782;6.074;2022-07-29T04:02:15;99420.06;;;17.37;96.58
24858;BME280;12935;50.782;6.074;2022-07-29T04:04:40;99420.53;;;17.35;95.84
24858;BME280;12935;50.782;6.074;2022-07-29T04:07:05;99424.94;;;17.33;95.36
24858;BME280;12935;50.782;6.074;2022-07-29T04:09:31;99429.03;;;17.41;95.94
24858;BME280;12935;50.782;6.074;2022-07-29T04:11:56;99420.41;;;17.51;96.06
24858;BME280;12935;50.782;6.074;2022-07-29T04:14:21;99423.94;;;17.52;95.74
24858;BME280;12935;50.782;6.074;2022-07-29T04:16:47;99421.28;;;17.48;94.39
24858;BME280;12935;50.782;6.074;2022-07-29T04:19:12;99425.94;;;17.51;93.46
24858;BME280;12935;50.782;6.074;2022-07-29T04:21:39;99429.81;;;17.54;92.40
24858;BME280;12935;50.782;6.074;2022-07-29T04:24:05;99428.81;;;17.61;92.42
24858;BME280;12935;50.782;6.074;2022-07-29T04:26:30;99426.16;;;17.57;91.93
24858;BME280;12935;50.782;6.074;2022-07-29T04:28:56;99426.28;;;17.66;93.21
24858;BME280;12935;50.782;6.074;2022-07-29T04:31:21;99432.25;;;17.65;91.89
24858;BME280;12935;50.782;6.074;2022-07-29T04:33:46;99419.19;;;17.52;95.06
24858;BME280;12935;50.782;6.074;2022-07-29T04:36:11;99417.88;;;17.57;93.89
24858;BME280;12935;50.782;6.074;2022-07-29T04:38:37;99425.50;;;17.53;94.75
24858;BME280;12935;50.782;6.074;2022-07-29T04:41:03;99426.16;;;17.44;95.24
24858;BME280;12935;50.782;6.074;2022-07-29T04:43:28;99424.94;;;17.58;94.39
24858;BME280;12935;50.782;6.074;2022-07-29T04:45:53;99431.16;;;17.75;93.74
24858;BME280;12935;50.782;6.074;2022-07-29T04:48:19;99416.75;;;17.80;93.43
24858;BME280;12935;50.782;6.074;2022-07-29T04:50:44;99419.75;;;17.85;92.79
24858;BME280;12935;50.782;6.074;2022-07-29T04:53:09;99427.38;;;17.81;91.65
24858;BME280;12935;50.782;6.074;2022-07-29T04:55:35;99430.47;;;17.83;92.85
24858;BME280;12935;50.782;6.074;2022-07-29T04:58:01;99444.53;;;17.89;90.76
24858;BME280;12935;50.782;6.074;2022-07-29T05:00:26;99446.19;;;17.86;89.11
24858;BME280;12935;50.782;6.074;2022-07-29T05:02:52;99437.22;;;17.82;88.81
24858;BME280;12935;50.782;6.074;2022-07-29T05:05:17;99435.44;;;17.88;88.90
24858;BME280;12935;50.782;6.074;2022-07-29T05:07:42;99428.81;;;17.86;89.78
24858;BME280;12935;50.782;6.074;2022-07-29T05:10:08;99431.47;;;17.90;89.44
24858;BME280;12935;50.782;6.074;2022-07-29T05:12:33;99435.09;;;17.99;89.70
24858;BME280;12935;50.782;6.074;2022-07-29T05:14:59;99431.00;;;18.04;90.24
24858;BME280;12935;50.782;6.074;2022-07-29T05:17:24;99422.59;;;18.07;89.29
24858;BME280;12935;50.782;6.074;2022-07-29T05:19:49;99430.88;;;18.07;88.74
24858;BME280;12935;50.782;6.074;2022-07-29T05:22:19;99429.34;;;18.06;88.32
24858;BME280;12935;50.782;6.074;2022-07-29T05:24:44;99418.63;;;18.08;87.71
24858;BME280;12935;50.782;6.074;2022-07-29T05:27:09;99426.47;;;18.10;87.13
24858;BME280;12935;50.782;6.074;2022-07-29T05:29:35;99429.97;;;18.10;86.94
24858;BME280;12935;50.782;6.074;2022-07-29T05:32:00;99422.00;;;18.12;86.29
24858;BME280;12935;50.782;6.074;2022-07-29T05:34:25;99429.09;;;18.13;85.66
24858;BME280;12935;50.782;6.074;2022-07-29T05:36:51;99429.84;;;18.14;85.02
24858;BME280;12935;50.782;6.074;2022-07-29T05:39:16;99434.16;;;18.15;83.97
24858;BME280;12935;50.782;6.074;2022-07-29T05:41:41;99435.84;;;18.12;83.39
24858;BME280;12935;50.782;6.074;2022-07-29T05:44:07;99432.72;;;18.23;83.03
24858;BME280;12935;50.782;6.074;2022-07-29T05:46:32;99438.88;;;18.27;83.08
24858;BME280;12935;50.782;6.074;2022-07-29T05:48:57;99436.00;;;18.31;82.92
24858;BME280;12935;50.782;6.074;2022-07-29T05:51:23;99436.34;;;18.33;82.22
24858;BME280;12935;50.782;6.074;2022-07-29T05:53:48;99439.00;;;18.36;81.58
24858;BME280;12935;50.782;6.074;2022-07-29T05:56:13;99445.19;;;18.40;80.85
24858;BME280;12935;50.782;6.074;2022-07-29T05:58:38;99437.00;;;18.37;80.41
24858;BME280;12935;50.782;6.074;2022-07-29T06:01:04;99445.38;;;18.46;80.61
24858;BME280;12935;50.782;6.074;2022-07-29T06:03:29;99444.03;;;18.50;81.04
24858;BME280;12935;50.782;6.074;2022-07-29T06:05:55;99443.69;;;18.48;80.37
24858;BME280;12935;50.782;6.074;2022-07-29T06:08:20;99436.16;;;18.49;80.59
24858;BME280;12935;50.782;6.074;2022-07-29T06:10:46;99437.28;;;18.51;80.52
24858;BME280;12935;50.782;6.074;2022-07-29T06:13:12;99442.69;;;18.55;80.60
24858;BME280;12935;50.782;6.074;2022-07-29T06:15:37;99440.59;;;18.46;80.31
24858;BME280;12935;50.782;6.074;2022-07-29T06:18:03;99439.06;;;18.45;80.74
24858;BME280;12935;50.782;6.074;2022-07-29T06:20:29;99437.59;;;18.53;80.85
24858;BME280;12935;50.782;6.074;2022-07-29T06:22:55;99436.06;;;18.52;80.76
24858;BME280;12935;50.782;6.074;2022-07-29T06:25:20;99433.53;;;18.45;81.24
24858;BME280;12935;50.782;6.074;2022-07-29T06:27:46;99439.59;;;18.53;82.71
24858;BME280;12935;50.782;6.074;2022-07-29T06:30:11;99439.59;;;18.53;83.65
24858;BME280;12935;50.782;6.074;2022-07-29T06:32:37;99436.59;;;18.60;85.24
24858;BME280;12935;50.782;6.074;2022-07-29T06:35:02;99440.47;;;18.63;85.41
24858;BME280;12935;50.782;6.074;2022-07-29T06:37:28;99437.38;;;18.61;84.65
24858;BME280;12935;50.782;6.074;2022-07-29T06:39:53;99432.28;;;18.59;83.60
24858;BME280;12935;50.782;6.074;2022-07-29T06:42:45;99436.72;;;18.56;82.75
24858;BME280;12935;50.782;6.074;2022-07-29T06:45:11;99441.34;;;18.60;82.63
24858;BME280;12935;50.782;6.074;2022-07-29T06:47:36;99446.44;;;18.61;82.86
24858;BME280;12935;50.782;6.074;2022-07-29T06:50:01;99444.88;;;18.60;83.06
24858;BME280;12935;50.782;6.074;2022-07-29T06:52:27;99445.09;;;18.66;83.50
24858;BME280;12935;50.782;6.074;2022-07-29T06:54:52;99442.00;;;18.64;84.70
24858;BME280;12935;50.782;6.074;2022-07-29T06:57:18;99447.31;;;18.58;84.57
24858;BME280;12935;50.782;6.074;2022-07-29T06:59:43;99454.75;;;18.83;84.10
24858;BME280;12935;50.782;6.074;2022-07-29T07:02:08;99455.91;;;18.95;83.86
24858;BME280;12935;50.782;6.074;2022-07-29T07:04:34;99462.03;;;18.89;84.02
24858;BME280;12935;50.782;6.074;2022-07-29T07:06:59;99468.97;;;18.94;84.90
24858;BME280;12935;50.782;6.074;2022-07-29T07:09:24;99465.00;;;18.95;83.91
24858;BME280;12935;50.782;6.074;2022-07-29T07:11:50;99470.22;;;18.93;83.98
24858;BME280;12935;50.782;6.074;2022-07-29T07:14:15;99476.41;;;18.97;84.54
24858;BME280;12935;50.782;6.074;2022-07-29T07:16:40;99469.88;;;19.13;84.56
24858;BME280;12935;50.782;6.074;2022-07-29T07:19:06;99483.88;;;19.40;83.04
24858;BME280;12935;50.782;6.074;2022-07-29T07:21:32;99476.47;;;19.59;82.28
24858;BME280;12935;50.782;6.074;2022-07-29T07:23:58;99480.34;;;19.71;81.41
24858;BME280;12935;50.782;6.074;2022-07-29T07:26:24;99487.78;;;19.74;80.12
24858;BME280;12935;50.782;6.074;2022-07-29T07:28:50;99487.22;;;19.57;80.45
24858;BME280;12935;50.782;6.074;2022-07-29T07:31:15;99498.28;;;19.79;80.44
24858;BME280;12935;50.782;6.074;2022-07-29T07:33:40;99494.28;;;19.89;79.31
24858;BME280;12935;50.782;6.074;2022-07-29T07:36:06;99488.28;;;19.81;78.43
24858;BME280;12935;50.782;6.074;2022-07-29T07:38:31;99482.81;;;20.09;78.71
24858;BME280;12935;50.782;6.074;2022-07-29T07:40:56;99485.69;;;20.45;78.39
24858;BME280;12935;50.782;6.074;2022-07-29T07:43:22;99486.28;;;20.67;77.03
24858;BME280;12935;50.782;6.074;2022-07-29T07:45:47;99477.81;;;20.71;75.05
24858;BME280;12935;50.782;6.074;2022-07-29T07:48:12;99482.28;;;20.78;75.05
24858;BME280;12935;50.782;6.074;2022-07-29T07:50:38;99486.75;;;20.84;73.25
24858;BME280;12935;50.782;6.074;2022-07-29T07:53:03;99488.59;;;20.96;72.66
24858;BME280;12935;50.782;6.074;2022-07-29T07:55:28;99486.44;;;20.91;72.45
24858;BME280;12935;50.782;6.074;2022-07-29T07:57:54;99490.94;;;20.71;73.95
24858;BME280;12935;50.782;6.074;2022-07-29T08:00:20;99483.94;;;20.29;76.32
24858;BME280;12935;50.782;6.074;2022-07-29T08:02:46;99491.44;;;20.11;76.66
24858;BME280;12935;50.782;6.074;2022-07-29T08:05:12;99484.66;;;20.12;76.85
24858;BME280;12935;50.782;6.074;2022-07-29T08:07:42;99488.41;;;20.27;77.28
24858;BME280;12935;50.782;6.074;2022-07-29T08:10:08;99494.09;;;20.23;78.11
24858;BME280;12935;50.782;6.074;2022-07-29T08:12:33;99497.91;;;20.17;78.78
24858;BME280;12935;50.782;6.074;2022-07-29T08:14:59;99494.53;;;20.31;77.10
24858;BME280;12935;50.782;6.074;2022-07-29T08:17:24;99493.06;;;20.39;75.66
24858;BME280;12935;50.782;6.074;2022-07-29T08:19:50;99495.31;;;20.31;77.17
24858;BME280;12935;50.782;6.074;2022-07-29T08:22:15;99493.56;;;19.98;77.64
24858;BME280;12935;50.782;6.074;2022-07-29T08:24:41;99497.41;;;20.00;77.94
24858;BME280;12935;50.782;6.074;2022-07-29T08:27:10;99506.50;;;20.01;78.81
24858;BME280;12935;50.782;6.074;2022-07-29T08:29:36;99508.75;;;19.84;80.53
24858;BME280;12935;50.782;6.074;2022-07-29T08:32:03;99512.81;;;19.92;80.39
24858;BME280;12935;50.782;6.074;2022-07-29T08:34:28;99506.16;;;19.89;82.83
24858;BME280;12935;50.782;6.074;2022-07-29T08:36:54;99511.44;;;20.06;81.34
24858;BME280;12935;50.782;6.074;2022-07-29T08:39:20;99507.44;;;19.98;80.98
24858;BME280;12935;50.782;6.074;2022-07-29T08:41:46;99509.97;;;20.32;79.16
24858;BME280;12935;50.782;6.074;2022-07-29T08:44:12;99510.97;;;20.56;77.07
24858;BME280;12935;50.782;6.074;2022-07-29T08:46:38;99509.59;;;20.79;76.57
24858;BME280;12935;50.782;6.074;2022-07-29T08:49:06;99509.13;;;21.08;74.60
24858;BME280;12935;50.782;6.074;2022-07-29T08:51:33;99511.41;;;21.28;75.26
24858;BME280;12935;50.782;6.074;2022-07-29T08:54:00;99516.06;;;21.40;71.89
24858;BME280;12935;50.782;6.074;2022-07-29T08:56:26;99513.72;;;21.29;71.73
24858;BME280;12935;50.782;6.074;2022-07-29T08:58:52;99517.56;;;21.41;71.62
24858;BME280;12935;50.782;6.074;2022-07-29T09:01:24;99519.38;;;21.62;70.91
24858;BME280;12935;50.782;6.074;2022-07-29T09:03:54;99513.19;;;21.58;69.12
24858;BME280;12935;50.782;6.074;2022-07-29T09:06:21;99510.19;;;21.38;68.83
24858;BME280;12935;50.782;6.074;2022-07-29T09:08:47;99517.19;;;21.66;69.82
24858;BME280;12935;50.782;6.074;2022-07-29T09:11:14;99522.00;;;22.08;67.94
24858;BME280;12935;50.782;6.074;2022-07-29T09:13:40;99525.31;;;22.21;66.82
24858;BME280;12935;50.782;6.074;2022-07-29T09:16:06;99518.56;;;22.37;67.17
24858;BME280;12935;50.782;6.074;2022-07-29T09:21:03;99516.09;;;22.63;64.55
24858;BME280;12935;50.782;6.074;2022-07-29T09:26:43;99518.13;;;23.16;60.87
24858;BME280;12935;50.782;6.074;2022-07-29T09:29:11;99511.13;;;23.35;59.95
24858;BME280;12935;50.782;6.074;2022-07-29T09:31:42;99523.00;;;23.59;59.03
24858;BME280;12935;50.782;6.074;2022-07-29T09:34:09;99513.63;;;23.62;57.71
24858;BME280;12935;50.782;6.074;2022-07-29T09:36:47;99518.47;;;23.76;58.12
24858;BME280;12935;50.782;6.074;2022-07-29T09:39:14;99523.75;;;23.45;55.17
24858;BME280;12935;50.782;6.074;2022-07-29T09:42:00;99515.84;;;23.73;57.25
24858;BME280;12935;50.782;6.074;2022-07-29T09:44:26;99530.59;;;24.23;57.27
24858;BME280;12935;50.782;6.074;2022-07-29T09:46:59;99526.41;;;24.33;56.17
24858;BME280;12935;50.782;6.074;2022-07-29T09:49:27;99526.84;;;24.11;54.17
24858;BME280;12935;50.782;6.074;2022-07-29T09:52:00;99519.50;;;23.64;54.76
24858;BME280;12935;50.782;6.074;2022-07-29T09:54:26;99531.72;;;23.23;56.12
24858;BME280;12935;50.782;6.074;2022-07-29T09:56:53;99533.84;;;23.42;57.53
24858;BME280;12935;50.782;6.074;2022-07-29T09:59:19;99538.06;;;23.82;57.58
24858;BME280;12935;50.782;6.074;2022-07-29T10:01:52;99545.50;;;23.70;56.73
24858;BME280;12935;50.782;6.074;2022-07-29T10:04:17;99541.81;;;23.50;57.26
24858;BME280;12935;50.782;6.074;2022-07-29T10:06:59;99535.38;;;23.73;55.79
24858;BME280;12935;50.782;6.074;2022-07-29T10:09:26;99544.09;;;24.45;55.97
24858;BME280;12935;50.782;6.074;2022-07-29T10:12:08;99529.16;;;24.68;53.20
24858;BME280;12935;50.782;6.074;2022-07-29T10:14:35;99538.50;;;24.45;53.23
24858;BME280;12935;50.782;6.074;2022-07-29T10:17:01;99529.06;;;24.63;53.02
24858;BME280;12935;50.782;6.074;2022-07-29T10:19:29;99533.25;;;24.93;51.84
24858;BME280;12935;50.782;6.074;2022-07-29T10:21:57;99537.88;;;24.96;52.52
24858;BME280;12935;50.782;6.074;2022-07-29T10:24:24;99525.06;;;25.36;50.94
24858;BME280;12935;50.782;6.074;2022-07-29T10:26:50;99529.28;;;25.51;49.13
24858;BME280;12935;50.782;6.074;2022-07-29T10:29:15;99535.16;;;25.53;49.49
24858;BME280;12935;50.782;6.074;2022-07-29T10:31:49;99523.19;;;25.79;49.25
24858;BME280;12935;50.782;6.074;2022-07-29T10:34:31;99525.38;;;25.69;49.37
24858;BME280;12935;50.782;6.074;2022-07-29T10:37:05;99528.03;;;25.78;50.52
24858;BME280;12935;50.782;6.074;2022-07-29T10:39:52;99525.09;;;25.62;51.79
24858;BME280;12935;50.782;6.074;2022-07-29T10:42:22;99515.06;;;25.81;52.37
24858;BME280;12935;50.782;6.074;2022-07-29T10:44:50;99519.97;;;25.92;51.21
24858;BME280;12935;50.782;6.074;2022-07-29T10:47:23;99529.03;;;26.12;51.48
24858;BME280;12935;50.782;6.074;2022-07-29T10:50:15;99531.78;;;26.07;50.80
24858;BME280;12935;50.782;6.074;2022-07-29T10:55:34;99530.75;;;26.47;50.26
24858;BME280;12935;50.782;6.074;2022-07-29T10:58:22;99531.66;;;26.27;51.11
24858;BME280;12935;50.782;6.074;2022-07-29T11:00:54;99538.47;;;26.63;50.65
24858;BME280;12935;50.782;6.074;2022-07-29T11:03:51;99540.22;;;26.55;48.83
24858;BME280;12935;50.782;6.074;2022-07-29T11:06:20;99539.84;;;26.31;49.06
24858;BME280;12935;50.782;6.074;2022-07-29T11:09:15;99548.47;;;26.75;49.50
24858;BME280;12935;50.782;6.074;2022-07-29T11:11:40;99542.53;;;27.55;48.59
24858;BME280;12935;50.782;6.074;2022-07-29T11:14:06;99545.06;;;27.25;47.21
24858;BME280;12935;50.782;6.074;2022-07-29T11:17:00;99545.06;;;27.19;48.76
24858;BME280;12935;50.782;6.074;2022-07-29T11:19:29;99538.94;;;27.15;48.52
24858;BME280;12935;50.782;6.074;2022-07-29T11:21:55;99554.47;;;27.05;49.13
24858;BME280;12935;50.782;6.074;2022-07-29T11:24:25;99548.91;;;27.28;48.59
24858;BME280;12935;50.782;6.074;2022-07-29T11:27:12;99553.53;;;27.36;48.93
24858;BME280;12935;50.782;6.074;2022-07-29T11:29:40;99544.59;;;27.49;48.19
24858;BME280;12935;50.782;6.074;2022-07-29T11:32:13;99538.22;;;27.54;47.85
24858;BME280;12935;50.782;6.074;2022-07-29T11:34:44;99543.84;;;27.48;47.32
24858;BME280;12935;50.782;6.074;2022-07-29T11:39:37;99552.78;;;26.76;49.50
24858;BME280;12935;50.782;6.074;2022-07-29T11:45:08;99555.31;;;28.34;47.00
24858;BME280;12935;50.782;6.074;2022-07-29T11:47:47;99553.81;;;28.00;45.32
24858;BME280;12935;50.782;6.074;2022-07-29T11:50:15;99557.84;;;28.49;46.50
24858;BME280;12935;50.782;6.074;2022-07-29T11:52:44;99546.53;;;29.23;43.97
24858;BME280;12935;50.782;6.074;2022-07-29T11:55:21;99545.44;;;29.32;42.40
24858;BME280;12935;50.782;6.074;2022-07-29T11:57:57;99547.31;;;28.55;42.66
24858;BME280;12935;50.782;6.074;2022-07-29T12:00:26;99543.84;;;28.15;42.35
24858;BME280;12935;50.782;6.074;2022-07-29T12:02:52;99543.59;;;28.13;42.52
24858;BME280;12935;50.782;6.074;2022-07-29T12:05:18;99538.47;;;28.17;43.38
24858;BME280;12935;50.782;6.074;2022-07-29T12:07:45;99535.34;;;28.49;43.04
24858;BME280;12935;50.782;6.074;2022-07-29T12:10:10;99538.94;;;28.44;43.09
24858;BME280;12935;50.782;6.074;2022-07-29T12:12:35;99528.47;;;28.44;41.56
24858;BME280;12935;50.782;6.074;2022-07-29T12:15:15;99536.38;;;28.35;41.39
24858;BME280;12935;50.782;6.074;2022-07-29T12:17:42;99531.53;;;28.46;41.82
24858;BME280;12935;50.782;6.074;2022-07-29T12:20:08;99537.25;;;28.87;41.86
24858;BME280;12935;50.782;6.074;2022-07-29T12:22:38;99533.94;;;28.78;40.20
24858;BME280;12935;50.782;6.074;2022-07-29T12:25:15;99534.00;;;29.19;40.16
24858;BME280;12935;50.782;6.074;2022-07-29T12:27:42;99531.88;;;29.96;40.73
24858;BME280;12935;50.782;6.074;2022-07-29T12:30:14;99536.03;;;30.68;36.83
24858;BME280;12935;50.782;6.074;2022-07-29T12:32:46;99536.19;;;30.76;38.23
24858;BME280;12935;50.782;6.074;2022-07-29T12:35:14;99541.50;;;30.60;36.49
24858;BME280;12935;50.782;6.074;2022-07-29T12:37:41;99529.63;;;31.05;38.27
24858;BME280;12935;50.782;6.074;2022-07-29T12:40:08;99530.97;;;31.87;36.75
24858;BME280;12935;50.782;6.074;2022-07-29T12:42:34;99533.38;;;30.94;36.10
24858;BME280;12935;50.782;6.074;2022-07-29T12:45:00;99518.53;;;30.26;37.84
24858;BME280;12935;50.782;6.074;2022-07-29T12:47:26;99526.72;;;30.06;37.25
24858;BME280;12935;50.782;6.074;2022-07-29T12:50:10;99521.00;;;29.51;37.86
24858;BME280;12935;50.782;6.074;2022-07-29T12:52:36;99514.69;;;30.05;37.30
24858;BME280;12935;50.782;6.074;2022-07-29T12:55:02;99521.88;;;30.00;38.01
24858;BME280;12935;50.782;6.074;2022-07-29T12:57:28;99528.78;;;30.73;37.18
24858;BME280;12935;50.782;6.074;2022-07-29T13:00:07;99527.28;;;31.92;35.25
24858;BME280;12935;50.782;6.074;2022-07-29T13:02:33;99524.22;;;32.95;33.52
24858;BME280;12935;50.782;6.074;2022-07-29T13:05:00;99533.09;;;32.52;34.07
24858;BME280;12935;50.782;6.074;2022-07-29T13:07:27;99525.03;;;33.51;33.45
24858;BME280;12935;50.782;6.074;2022-07-29T13:09:53;99527.25;;;34.35;32.01
24858;BME280;12935;50.782;6.074;2022-07-29T13:12:19;99534.16;;;33.57;31.80
24858;BME280;12935;50.782;6.074;2022-07-29T13:14:47;99531.31;;;33.02;32.25
24858;BME280;12935;50.782;6.074;2022-07-29T13:17:14;99542.38;;;32.26;33.69
24858;BME280;12935;50.782;6.074;2022-07-29T13:19:45;99542.91;;;29.99;36.84